createdAt,value
2022-11-25T00:01:12.095Z,-5.23
2022-11-25T00:03:39.986Z,-5.31
2022-11-25T00:06:25.132Z,-5.26
2022-11-25T00:08:55.298Z,-5.33
2022-11-25T00:11:22.082Z,-5.36
2022-11-25T00:13:49.468Z,-5.36
2022-11-25T00:16:18.839Z,-5.32
2022-11-25T00:18:50.251Z,-5.34
2022-11-25T00:21:20.130Z,-5.35
2022-11-25T00:23:53.988Z,-5.34
2022-11-25T00:26:21.982Z,-5.20
2022-11-25T00:28:49.789Z,-5.17
2022-11-25T00:31:25.328Z,-5.15
2022-11-25T00:33:52.940Z,-5.09
2022-11-25T00:36:22.975Z,-5.03
2022-11-25T00:38:57.669Z,-5.07
2022-11-25T00:41:43.595Z,-5.24
2022-11-25T00:44:30.816Z,-5.30
2022-11-25T00:46:57.935Z,-5.39
2022-11-25T00:49:24.779Z,-5.40
2022-11-25T00:51:52.200Z,-5.41
2022-11-25T00:54:19.139Z,-5.39
2022-11-25T00:56:46.055Z,-5.45
2022-11-25T00:59:12.817Z,-5.46
2022-11-25T01:01:42.449Z,-5.38
2022-11-25T01:04:09.465Z,-5.33
2022-11-25T01:06:37.687Z,-5.20
2022-11-25T01:09:06.177Z,-5.02
2022-11-25T01:14:22.052Z,-5.03
2022-11-25T01:16:49.496Z,-4.94
2022-11-25T01:19:17.392Z,-4.96
2022-11-25T01:21:44.763Z,-5.05
2022-11-25T01:24:15.929Z,-5.05
2022-11-25T01:26:44.100Z,-5.18
2022-11-25T01:29:19.865Z,-5.10
2022-11-25T01:31:48.427Z,-5.01
2022-11-25T01:34:24.025Z,-5.00
2022-11-25T01:36:51.391Z,-5.15
2022-11-25T01:39:26.997Z,-5.22
2022-11-25T01:41:58.599Z,-5.32
2022-11-25T01:44:30.426Z,-5.34
2022-11-25T01:47:00.743Z,-5.28
2022-11-25T01:49:36.899Z,-5.34
2022-11-25T01:52:28.493Z,-5.28
2022-11-25T01:55:20.400Z,-5.25
2022-11-25T01:57:56.109Z,-5.30
2022-11-25T02:00:23.098Z,-5.40
2022-11-25T02:02:53.191Z,-5.42
2022-11-25T02:05:35.520Z,-5.42
2022-11-25T02:08:03.996Z,-5.49
2022-11-25T02:10:32.530Z,-5.51
2022-11-25T02:13:00.406Z,-5.53
2022-11-25T02:15:29.512Z,-5.52
2022-11-25T02:17:56.557Z,-5.52
2022-11-25T02:20:24.812Z,-5.51
2022-11-25T02:23:00.667Z,-5.53
2022-11-25T02:25:33.079Z,-5.46
2022-11-25T02:28:32.811Z,-5.39
2022-11-25T02:30:59.664Z,-5.49
2022-11-25T02:33:27.363Z,-5.33
2022-11-25T02:35:59.933Z,-5.28
2022-11-25T02:38:47.807Z,-5.30
2022-11-25T02:41:32.763Z,-5.22
2022-11-25T02:44:00.634Z,-5.18
2022-11-25T02:46:28.559Z,-5.22
2022-11-25T02:49:12.987Z,-5.22
2022-11-25T02:51:41.754Z,-5.23
2022-11-25T02:54:08.519Z,-5.26
2022-11-25T02:56:36.273Z,-5.25
2022-11-25T02:59:04.045Z,-5.23
2022-11-25T03:01:31.913Z,-5.26
2022-11-25T03:03:59.408Z,-5.13
2022-11-25T03:06:26.138Z,-5.06
2022-11-25T03:08:52.888Z,-5.00
2022-11-25T03:11:19.704Z,-5.08
2022-11-25T03:13:46.439Z,-5.06
2022-11-25T03:16:13.266Z,-5.03
2022-11-25T03:18:40.060Z,-4.91
2022-11-25T03:21:07.468Z,-5.01
2022-11-25T03:23:34.364Z,-5.01
2022-11-25T03:26:06.050Z,-5.06
2022-11-25T03:28:32.771Z,-5.18
2022-11-25T03:30:59.503Z,-5.25
2022-11-25T03:33:26.247Z,-5.29
2022-11-25T03:35:52.921Z,-5.15
2022-11-25T03:38:19.623Z,-5.06
2022-11-25T03:40:47.908Z,-5.13
2022-11-25T03:43:14.638Z,-5.21
2022-11-25T03:45:41.512Z,-5.23
2022-11-25T03:48:08.362Z,-5.25
2022-11-25T03:50:35.101Z,-5.24
2022-11-25T03:53:01.826Z,-5.15
2022-11-25T03:55:28.547Z,-5.11
2022-11-25T03:57:55.328Z,-5.00
2022-11-25T04:00:22.376Z,-4.85
2022-11-25T04:02:49.238Z,-4.85
2022-11-25T04:05:16.034Z,-4.89
2022-11-25T04:07:42.940Z,-4.60
2022-11-25T04:10:10.172Z,-4.58
2022-11-25T04:12:48.862Z,-4.68
2022-11-25T04:15:17.269Z,-4.84
2022-11-25T04:17:44.146Z,-4.77
2022-11-25T04:20:12.889Z,-4.74
2022-11-25T04:22:39.776Z,-4.83
2022-11-25T04:25:06.851Z,-4.91
2022-11-25T04:27:33.618Z,-4.95
2022-11-25T04:30:00.367Z,-5.05
2022-11-25T04:32:27.542Z,-5.13
2022-11-25T04:34:54.360Z,-5.21
2022-11-25T04:37:21.636Z,-5.19
2022-11-25T04:39:48.477Z,-5.15
2022-11-25T04:42:34.322Z,-5.07
2022-11-25T04:47:51.212Z,-4.86
2022-11-25T04:50:20.634Z,-4.90
2022-11-25T04:52:47.459Z,-5.03
2022-11-25T04:55:14.286Z,-5.07
2022-11-25T04:57:41.001Z,-5.12
2022-11-25T05:00:09.339Z,-5.06
2022-11-25T05:02:36.322Z,-5.07
2022-11-25T05:05:03.232Z,-4.96
2022-11-25T05:07:31.617Z,-4.88
2022-11-25T05:09:58.366Z,-4.89
2022-11-25T05:12:28.082Z,-4.90
2022-11-25T05:14:55.091Z,-5.05
2022-11-25T05:17:27.075Z,-4.99
2022-11-25T05:19:54.412Z,-5.02
2022-11-25T05:22:24.032Z,-5.08
2022-11-25T05:24:50.789Z,-5.16
2022-11-25T05:27:18.152Z,-5.18
2022-11-25T05:29:45.156Z,-5.05
2022-11-25T05:32:12.450Z,-4.89
2022-11-25T05:34:39.728Z,-4.92
2022-11-25T05:37:07.465Z,-5.02
2022-11-25T05:39:34.409Z,-5.06
2022-11-25T05:42:01.138Z,-5.08
2022-11-25T05:44:27.961Z,-5.08
2022-11-25T05:46:54.672Z,-5.11
2022-11-25T05:49:21.781Z,-5.18
2022-11-25T05:51:48.778Z,-5.24
2022-11-25T05:54:15.880Z,-5.27
2022-11-25T05:56:42.648Z,-5.31
2022-11-25T05:59:09.527Z,-5.30
2022-11-25T06:01:36.260Z,-5.33
2022-11-25T06:04:04.453Z,-5.33
2022-11-25T06:06:32.281Z,-5.31
2022-11-25T06:08:59.550Z,-5.26
2022-11-25T06:11:26.347Z,-5.24
2022-11-25T06:13:53.424Z,-5.23
2022-11-25T06:16:22.391Z,-5.20
2022-11-25T06:18:49.447Z,-5.24
2022-11-25T06:21:16.912Z,-5.28
2022-11-25T06:23:45.571Z,-5.30
2022-11-25T06:26:21.977Z,-5.25
2022-11-25T06:28:50.469Z,-5.30
2022-11-25T06:31:20.788Z,-5.25
2022-11-25T06:33:49.018Z,-5.25
2022-11-25T06:36:19.517Z,-5.24
2022-11-25T06:38:48.970Z,-5.18
2022-11-25T06:41:16.855Z,-5.15
2022-11-25T06:43:43.747Z,-5.05
2022-11-25T06:46:14.026Z,-4.92
2022-11-25T06:48:41.873Z,-4.80
2022-11-25T06:51:11.495Z,-4.76
2022-11-25T06:53:39.233Z,-4.70
2022-11-25T06:56:16.426Z,-4.66
2022-11-25T06:58:44.745Z,-4.86
2022-11-25T07:01:13.057Z,-4.85
2022-11-25T07:03:40.660Z,-4.68
2022-11-25T07:06:07.785Z,-4.64
2022-11-25T07:08:34.648Z,-4.70
2022-11-25T07:11:23.337Z,-4.72
2022-11-25T07:14:02.010Z,-4.85
2022-11-25T07:16:29.367Z,-4.94
2022-11-25T07:18:56.696Z,-4.93
2022-11-25T07:21:25.297Z,-4.89
2022-11-25T07:23:52.931Z,-4.85
2022-11-25T07:26:23.489Z,-4.82
2022-11-25T07:28:51.673Z,-4.87
2022-11-25T07:31:32.514Z,-4.87
2022-11-25T07:34:06.473Z,-4.89
2022-11-25T07:36:34.938Z,-4.93
2022-11-25T07:39:05.051Z,-4.94
2022-11-25T07:41:32.181Z,-4.97
2022-11-25T07:44:04.731Z,-4.89
2022-11-25T07:46:34.052Z,-4.87
2022-11-25T07:49:03.921Z,-4.88
2022-11-25T07:51:35.820Z,-4.85
2022-11-25T07:54:04.796Z,-4.84
2022-11-25T07:56:33.496Z,-4.82
2022-11-25T07:59:00.225Z,-4.84
2022-11-25T08:01:27.144Z,-4.81
2022-11-25T08:03:54.100Z,-4.77
2022-11-25T08:06:26.733Z,-4.76
2022-11-25T08:08:55.595Z,-4.76
2022-11-25T08:11:25.586Z,-4.75
2022-11-25T08:13:53.204Z,-4.77
2022-11-25T08:16:22.487Z,-4.78
2022-11-25T08:18:49.940Z,-4.77
2022-11-25T08:21:17.692Z,-4.76
2022-11-25T08:23:47.547Z,-4.82
2022-11-25T08:26:20.911Z,-4.83
2022-11-25T08:28:47.772Z,-4.90
2022-11-25T08:31:18.087Z,-4.85
2022-11-25T08:33:45.345Z,-4.84
2022-11-25T08:36:12.724Z,-4.84
2022-11-25T08:38:40.737Z,-4.79
2022-11-25T08:41:20.435Z,-4.69
2022-11-25T08:43:47.205Z,-4.76
2022-11-25T08:46:17.628Z,-4.70
2022-11-25T08:48:44.679Z,-4.70
2022-11-25T08:51:17.964Z,-4.59
2022-11-25T08:53:45.723Z,-4.60
2022-11-25T08:56:13.054Z,-4.59
2022-11-25T08:58:39.866Z,-4.59
2022-11-25T09:01:08.023Z,-4.59
2022-11-25T09:03:37.836Z,-4.58
2022-11-25T09:06:06.190Z,-4.59
2022-11-25T09:08:33.122Z,-4.60
2022-11-25T09:11:00.591Z,-4.60
2022-11-25T09:13:27.620Z,-4.62
2022-11-25T09:15:54.946Z,-4.65
2022-11-25T09:18:26.059Z,-4.67
2022-11-25T09:20:53.931Z,-4.68
2022-11-25T09:23:21.073Z,-4.74
2022-11-25T09:25:54.967Z,-4.70
2022-11-25T09:28:22.875Z,-4.71
2022-11-25T09:30:50.517Z,-4.72
2022-11-25T09:33:17.786Z,-4.70
2022-11-25T09:35:44.751Z,-4.70
2022-11-25T09:38:11.573Z,-4.71
2022-11-25T09:40:53.472Z,-4.68
2022-11-25T09:44:06.603Z,-4.64
2022-11-25T09:46:54.777Z,-4.64
2022-11-25T09:49:27.661Z,-4.68
2022-11-25T09:52:06.984Z,-4.66
2022-11-25T09:54:44.831Z,-4.60
2022-11-25T09:58:01.359Z,-4.56
2022-11-25T10:00:54.188Z,-4.57
2022-11-25T10:03:41.289Z,-4.59
2022-11-25T10:06:23.943Z,-4.58
2022-11-25T10:08:59.742Z,-4.55
2022-11-25T10:11:32.134Z,-4.58
2022-11-25T10:14:19.481Z,-4.62
2022-11-25T10:17:07.276Z,-4.59
2022-11-25T10:19:52.297Z,-4.68
2022-11-25T10:22:23.945Z,-4.64
2022-11-25T10:24:54.168Z,-4.66
2022-11-25T10:28:01.212Z,-4.60
2022-11-25T10:30:30.577Z,-4.70
2022-11-25T10:33:14.000Z,-4.64
2022-11-25T10:36:08.052Z,-4.68
2022-11-25T10:39:05.145Z,-4.67
2022-11-25T10:41:37.616Z,-4.74
2022-11-25T10:44:06.204Z,-4.74
2022-11-25T10:47:13.544Z,-4.67
2022-11-25T10:50:05.740Z,-4.70
2022-11-25T10:52:41.345Z,-4.67
2022-11-25T10:55:12.290Z,-4.67
2022-11-25T10:57:41.054Z,-4.65
2022-11-25T11:00:34.416Z,-4.58
2022-11-25T11:03:26.114Z,-4.61
2022-11-25T11:05:54.642Z,-4.71
2022-11-25T11:08:28.721Z,-4.76
2022-11-25T11:11:21.926Z,-4.73
2022-11-25T11:13:50.734Z,-4.81
2022-11-25T11:16:36.250Z,-4.70
2022-11-25T11:19:03.860Z,-4.77
2022-11-25T11:21:35.949Z,-4.69
2022-11-25T11:24:21.009Z,-4.72
2022-11-25T11:27:02.544Z,-4.67
2022-11-25T11:29:29.330Z,-4.72
2022-11-25T11:32:00.854Z,-4.69
2022-11-25T11:34:54.697Z,-4.66
2022-11-25T11:37:27.588Z,-4.70
2022-11-25T11:40:09.575Z,-4.64
2022-11-25T11:42:43.682Z,-4.62
2022-11-25T11:45:25.348Z,-4.68
2022-11-25T11:48:10.999Z,-4.74
2022-11-25T11:50:51.347Z,-4.86
2022-11-25T11:53:32.728Z,-4.89
2022-11-25T11:56:33.499Z,-4.88
2022-11-25T11:58:57.534Z,-4.94
2022-11-25T12:01:24.342Z,-4.96
2022-11-25T12:04:08.618Z,-4.88
2022-11-25T12:06:38.430Z,-4.90
2022-11-25T12:09:13.745Z,-4.86
2022-11-25T12:11:46.281Z,-4.86
2022-11-25T12:14:49.558Z,-4.78
2022-11-25T12:17:23.387Z,-4.80
2022-11-25T12:20:03.619Z,-4.77
2022-11-25T12:22:37.535Z,-4.76
2022-11-25T12:25:22.516Z,-4.70
2022-11-25T12:27:55.093Z,-4.75
2022-11-25T12:30:23.752Z,-4.73
2022-11-25T12:32:58.554Z,-4.68
2022-11-25T12:35:32.745Z,-4.69
2022-11-25T12:38:24.156Z,-4.61
2022-11-25T12:41:25.139Z,-4.54
2022-11-25T12:44:03.192Z,-4.55
2022-11-25T12:46:38.164Z,-4.57
2022-11-25T12:49:07.925Z,-4.60
2022-11-25T12:52:12.355Z,-4.58
2022-11-25T12:55:03.599Z,-4.60
2022-11-25T12:57:51.024Z,-4.63
2022-11-25T13:00:42.006Z,-4.62
2022-11-25T13:03:43.552Z,-4.64
2022-11-25T13:06:39.447Z,-4.73
2022-11-25T13:09:25.587Z,-4.66
2022-11-25T13:12:13.951Z,-4.70
2022-11-25T13:15:00.022Z,-4.68
2022-11-25T13:17:30.337Z,-4.73
2022-11-25T13:20:25.071Z,-4.66
2022-11-25T13:23:13.290Z,-4.70
2022-11-25T13:25:42.409Z,-4.76
2022-11-25T13:28:31.112Z,-4.67
2022-11-25T13:31:25.779Z,-4.61
2022-11-25T13:33:59.320Z,-4.65
2022-11-25T13:36:44.300Z,-4.56
2022-11-25T13:39:17.435Z,-4.63
2022-11-25T13:41:50.166Z,-4.65
2022-11-25T13:44:28.342Z,-4.65
2022-11-25T13:46:58.264Z,-4.67
2022-11-25T13:50:00.063Z,-4.57
2022-11-25T13:52:33.130Z,-4.62
2022-11-25T13:55:04.903Z,-4.63
2022-11-25T13:57:38.358Z,-4.60
2022-11-25T14:00:29.720Z,-4.55
2022-11-25T14:03:19.275Z,-4.50
2022-11-25T14:06:12.414Z,-4.54
2022-11-25T14:08:51.195Z,-4.53
2022-11-25T14:11:35.194Z,-4.48
2022-11-25T14:14:54.411Z,-4.45
2022-11-25T14:17:39.783Z,-4.46
2022-11-25T14:20:32.632Z,-4.44
2022-11-25T14:23:08.597Z,-4.48
2022-11-25T14:25:50.804Z,-4.52
2022-11-25T14:28:54.323Z,-4.50
2022-11-25T14:31:38.435Z,-4.49
2022-11-25T14:34:17.514Z,-4.52
2022-11-25T14:36:50.402Z,-4.58
2022-11-25T14:39:23.491Z,-4.58
2022-11-25T14:41:57.706Z,-4.62
2022-11-25T14:44:30.159Z,-4.65
2022-11-25T14:46:58.633Z,-4.67
2022-11-25T14:49:55.644Z,-4.65
2022-11-25T14:52:34.631Z,-4.60
2022-11-25T14:55:04.370Z,-4.62
2022-11-25T14:57:36.091Z,-4.66
2022-11-25T15:00:05.599Z,-4.60
2022-11-25T15:02:36.678Z,-4.66
2022-11-25T15:05:16.980Z,-4.62
2022-11-25T15:07:54.820Z,-4.65
2022-11-25T15:10:36.543Z,-4.58
2022-11-25T15:13:13.049Z,-4.56
2022-11-25T15:15:40.389Z,-4.60
2022-11-25T15:18:10.083Z,-4.66
2022-11-25T15:20:36.888Z,-4.69
2022-11-25T15:23:04.558Z,-4.66
2022-11-25T15:25:31.458Z,-4.61
2022-11-25T15:27:58.554Z,-4.59
2022-11-25T15:30:28.148Z,-4.56
2022-11-25T15:32:56.506Z,-4.57
2022-11-25T15:35:26.324Z,-4.52
2022-11-25T15:37:54.396Z,-4.51
2022-11-25T15:40:40.813Z,-4.48
2022-11-25T15:43:23.913Z,-4.48
2022-11-25T15:45:54.511Z,-4.55
2022-11-25T15:48:46.274Z,-4.50
2022-11-25T15:51:41.593Z,-4.47
2022-11-25T15:54:19.796Z,-4.55
2022-11-25T15:56:53.091Z,-4.58
2022-11-25T15:59:38.548Z,-4.55
2022-11-25T16:02:45.132Z,-4.55
2022-11-25T16:05:15.016Z,-4.60
2022-11-25T16:07:51.104Z,-4.60
2022-11-25T16:10:24.070Z,-4.67
2022-11-25T16:13:22.841Z,-4.63
2022-11-25T16:15:55.516Z,-4.67
2022-11-25T16:18:41.347Z,-4.61
2022-11-25T16:21:17.980Z,-4.61
2022-11-25T16:23:49.544Z,-4.64
2022-11-25T16:26:23.103Z,-4.69
2022-11-25T16:28:53.014Z,-4.71
2022-11-25T16:31:20.089Z,-4.71
2022-11-25T16:33:46.998Z,-4.68
2022-11-25T16:36:13.860Z,-4.53
2022-11-25T16:38:41.142Z,-4.34
2022-11-25T16:41:19.067Z,-4.26
2022-11-25T16:43:45.944Z,-4.31
2022-11-25T16:46:18.057Z,-4.27
2022-11-25T16:48:45.782Z,-4.12
2022-11-25T16:51:18.765Z,-4.09
2022-11-25T16:53:46.504Z,-4.25
2022-11-25T16:56:23.333Z,-4.26
2022-11-25T16:58:50.306Z,-4.30
2022-11-25T17:01:19.740Z,-4.31
2022-11-25T17:03:47.937Z,-4.29
2022-11-25T17:06:21.852Z,-4.23
2022-11-25T17:08:50.921Z,-4.24
2022-11-25T17:11:22.803Z,-4.29
2022-11-25T17:13:50.850Z,-4.24
2022-11-25T17:16:21.052Z,-4.26
2022-11-25T17:18:49.171Z,-4.20
2022-11-25T17:21:17.403Z,-4.11
2022-11-25T17:23:45.101Z,-4.13
2022-11-25T17:26:24.261Z,-4.18
2022-11-25T17:28:57.104Z,-4.30
2022-11-25T17:31:27.588Z,-4.31
2022-11-25T17:33:54.448Z,-4.20
2022-11-25T17:36:22.156Z,-4.23
2022-11-25T17:38:49.098Z,-4.29
2022-11-25T17:41:18.417Z,-4.18
2022-11-25T17:43:47.116Z,-4.22
2022-11-25T17:46:16.119Z,-4.31
2022-11-25T17:48:43.405Z,-4.42
2022-11-25T17:51:12.119Z,-4.24
2022-11-25T17:53:40.070Z,-4.17
2022-11-25T17:56:22.970Z,-4.04
2022-11-25T17:58:50.262Z,-3.96
2022-11-25T18:01:17.117Z,-3.75
2022-11-25T18:03:44.081Z,-3.79
2022-11-25T18:06:10.908Z,-3.90
2022-11-25T18:08:37.703Z,-4.10
2022-11-25T18:11:07.173Z,-4.24
2022-11-25T18:13:38.955Z,-4.32
2022-11-25T18:16:08.873Z,-4.31
2022-11-25T18:18:35.725Z,-4.55
2022-11-25T18:21:02.779Z,-4.60
2022-11-25T18:23:30.102Z,-4.63
2022-11-25T18:26:00.374Z,-4.61
2022-11-25T18:28:30.769Z,-4.60
2022-11-25T18:31:02.601Z,-4.48
2022-11-25T18:33:29.569Z,-4.36
2022-11-25T18:35:56.455Z,-4.47
2022-11-25T18:38:23.380Z,-4.54
2022-11-25T18:40:53.480Z,-4.56
2022-11-25T18:43:24.733Z,-4.50
2022-11-25T18:45:53.805Z,-4.52
2022-11-25T18:48:25.695Z,-4.50
2022-11-25T18:50:54.842Z,-4.56
2022-11-25T18:53:21.918Z,-4.50
2022-11-25T18:55:49.283Z,-4.49
2022-11-25T18:58:22.577Z,-4.33
2022-11-25T19:00:50.975Z,-4.29
2022-11-25T19:03:21.433Z,-4.28
2022-11-25T19:05:49.025Z,-4.27
2022-11-25T19:08:16.040Z,-4.30
2022-11-25T19:10:45.383Z,-4.19
2022-11-25T19:13:25.275Z,-4.24
2022-11-25T19:15:52.451Z,-4.37
2022-11-25T19:18:25.749Z,-4.27
2022-11-25T19:20:52.840Z,-4.30
2022-11-25T19:23:25.642Z,-4.23
2022-11-25T19:25:55.662Z,-4.20
2022-11-25T19:28:22.641Z,-4.23
2022-11-25T19:30:53.451Z,-4.16
2022-11-25T19:33:33.130Z,-4.16
2022-11-25T19:36:00.120Z,-4.27
2022-11-25T19:38:27.198Z,-4.36
2022-11-25T19:40:55.604Z,-4.43
2022-11-25T19:43:23.627Z,-4.54
2022-11-25T19:45:50.803Z,-4.64
2022-11-25T19:48:20.627Z,-4.63
2022-11-25T19:50:52.093Z,-4.57
2022-11-25T19:53:20.973Z,-4.56
2022-11-25T19:55:48.704Z,-4.38
2022-11-25T19:58:16.029Z,-4.37
2022-11-25T20:00:45.231Z,-4.44
2022-11-25T20:03:22.285Z,-4.31
2022-11-25T20:05:50.935Z,-4.31
2022-11-25T20:08:20.782Z,-4.26
2022-11-25T20:10:47.797Z,-4.11
2022-11-25T20:13:14.540Z,-4.15
2022-11-25T20:15:42.768Z,-4.16
2022-11-25T20:18:18.625Z,-4.27
2022-11-25T20:20:48.566Z,-4.44
2022-11-25T20:23:30.757Z,-4.40
2022-11-25T20:25:57.449Z,-4.43
2022-11-25T20:28:27.238Z,-4.44
2022-11-25T20:30:54.610Z,-4.47
2022-11-25T20:33:24.601Z,-4.47
2022-11-25T20:35:59.488Z,-4.39
2022-11-25T20:38:28.735Z,-4.37
2022-11-25T20:40:58.036Z,-4.36
2022-11-25T20:43:38.756Z,-4.36
2022-11-25T20:46:07.075Z,-4.34
2022-11-25T20:48:37.400Z,-4.35
2022-11-25T20:51:12.954Z,-4.35
2022-11-25T20:53:45.215Z,-4.34
2022-11-25T20:56:15.748Z,-4.23
2022-11-25T20:58:43.040Z,-4.20
2022-11-25T21:01:09.980Z,-4.25
2022-11-25T21:03:36.748Z,-4.29
2022-11-25T21:06:12.681Z,-4.45
2022-11-25T21:08:39.731Z,-4.50
2022-11-25T21:11:06.623Z,-4.51
2022-11-25T21:13:33.608Z,-4.60
2022-11-25T21:16:00.431Z,-4.58
2022-11-25T21:18:27.535Z,-4.61
2022-11-25T21:20:57.559Z,-4.60
2022-11-25T21:23:36.408Z,-4.56
2022-11-25T21:26:11.874Z,-4.62
2022-11-25T21:28:42.447Z,-4.65
2022-11-25T21:31:18.431Z,-4.61
2022-11-25T21:33:51.341Z,-4.74
2022-11-25T21:36:23.697Z,-4.74
2022-11-25T21:38:54.656Z,-4.82
2022-11-25T21:41:21.380Z,-4.85
2022-11-25T21:43:49.722Z,-4.84
2022-11-25T21:46:22.682Z,-4.69
2022-11-25T21:48:49.810Z,-4.68
2022-11-25T21:51:21.803Z,-4.63
2022-11-25T21:53:49.303Z,-4.55
2022-11-25T21:56:26.361Z,-4.48
2022-11-25T21:58:53.325Z,-4.64
2022-11-25T22:01:20.985Z,-4.75
2022-11-25T22:03:47.779Z,-4.85
2022-11-25T22:06:29.585Z,-4.70
2022-11-25T22:08:57.335Z,-4.61
2022-11-25T22:11:31.829Z,-4.53
2022-11-25T22:14:00.678Z,-4.63
2022-11-25T22:16:34.422Z,-4.54
2022-11-25T22:19:01.366Z,-4.48
2022-11-25T22:21:28.164Z,-4.50
2022-11-25T22:23:55.288Z,-4.60
2022-11-25T22:26:34.011Z,-4.66
2022-11-25T22:29:02.263Z,-4.78
2022-11-25T22:31:29.558Z,-4.82
2022-11-25T22:33:56.568Z,-4.87
2022-11-25T22:36:41.404Z,-4.82
2022-11-25T22:39:22.798Z,-4.87
2022-11-25T22:41:58.663Z,-4.89
2022-11-25T22:44:32.796Z,-4.86
2022-11-25T22:46:59.676Z,-4.82
2022-11-25T22:49:46.588Z,-4.72
2022-11-25T22:52:26.196Z,-4.65
2022-11-25T22:54:53.495Z,-4.64
2022-11-25T22:57:20.504Z,-4.58
2022-11-25T22:59:47.205Z,-4.50
2022-11-25T23:02:23.679Z,-4.51
2022-11-25T23:04:55.689Z,-4.49
2022-11-25T23:07:24.061Z,-4.43
2022-11-25T23:09:51.438Z,-4.46
2022-11-25T23:12:18.692Z,-4.27
2022-11-25T23:14:46.100Z,-4.28
2022-11-25T23:17:25.232Z,-4.29
2022-11-25T23:19:53.159Z,-4.51
2022-11-25T23:22:20.488Z,-4.62
2022-11-25T23:24:49.096Z,-4.65
2022-11-25T23:27:16.544Z,-4.69
2022-11-25T23:29:43.391Z,-4.73
2022-11-25T23:32:20.961Z,-4.64
2022-11-25T23:34:50.495Z,-4.69
2022-11-25T23:37:17.518Z,-4.68
2022-11-25T23:39:50.503Z,-4.64
2022-11-25T23:42:18.786Z,-4.69
2022-11-25T23:44:45.577Z,-4.66
2022-11-25T23:47:17.422Z,-4.62
2022-11-25T23:49:45.858Z,-4.55
2022-11-25T23:52:26.659Z,-4.65
2022-11-25T23:54:54.278Z,-4.74
2022-11-25T23:57:32.406Z,-4.64
2022-11-25T23:59:59.215Z,-4.52
